sensor_id;sensor_type;location;lat;lon;timestamp;P1;durP1;ratioP1;P2;durP2;ratioP2
14209;SDS011;7188;56.070;12.698;2023-08-21T00:00:05;9.87;;;3.50;;
14209;SDS011;7188;56.070;12.698;2023-08-21T00:02:32;4.23;;;2.83;;
14209;SDS011;7188;56.070;12.698;2023-08-21T00:04:58;4.70;;;2.70;;
14209;SDS011;7188;56.070;12.698;2023-08-21T00:07:23;5.97;;;2.60;;
14209;SDS011;7188;56.070;12.698;2023-08-21T00:09:49;4.27;;;2.73;;
14209;SDS011;7188;56.070;12.698;2023-08-21T00:12:15;7.20;;;3.10;;
14209;SDS011;7188;56.070;12.698;2023-08-21T00:14:40;7.67;;;2.70;;
14209;SDS011;7188;56.070;12.698;2023-08-21T00:17:06;3.23;;;2.30;;
14209;SDS011;7188;56.070;12.698;2023-08-21T00:19:34;12.00;;;2.70;;
14209;SDS011;7188;56.070;12.698;2023-08-21T00:21:59;5.60;;;2.97;;
14209;SDS011;7188;56.070;12.698;2023-08-21T00:24:25;5.40;;;2.53;;
14209;SDS011;7188;56.070;12.698;2023-08-21T00:26:51;10.40;;;3.10;;
14209;SDS011;7188;56.070;12.698;2023-08-21T00:29:17;7.63;;;3.10;;
14209;SDS011;7188;56.070;12.698;2023-08-21T00:31:42;9.68;;;2.78;;
14209;SDS011;7188;56.070;12.698;2023-08-21T00:34:08;5.43;;;2.80;;
14209;SDS011;7188;56.070;12.698;2023-08-21T00:36:34;7.47;;;3.30;;
14209;SDS011;7188;56.070;12.698;2023-08-21T00:38:59;7.60;;;3.20;;
14209;SDS011;7188;56.070;12.698;2023-08-21T00:41:25;9.40;;;2.33;;
14209;SDS011;7188;56.070;12.698;2023-08-21T00:43:51;8.20;;;2.60;;
14209;SDS011;7188;56.070;12.698;2023-08-21T00:46:16;9.77;;;2.90;;
14209;SDS011;7188;56.070;12.698;2023-08-21T00:48:42;3.07;;;2.63;;
14209;SDS011;7188;56.070;12.698;2023-08-21T00:51:09;11.05;;;2.60;;
14209;SDS011;7188;56.070;12.698;2023-08-21T00:53:36;3.57;;;2.00;;
14209;SDS011;7188;56.070;12.698;2023-08-21T00:56:01;7.57;;;3.07;;
14209;SDS011;7188;56.070;12.698;2023-08-21T00:58:27;8.23;;;3.50;;
14209;SDS011;7188;56.070;12.698;2023-08-21T01:00:53;6.27;;;2.70;;
14209;SDS011;7188;56.070;12.698;2023-08-21T01:03:19;5.10;;;2.93;;
14209;SDS011;7188;56.070;12.698;2023-08-21T01:05:44;9.40;;;3.37;;
14209;SDS011;7188;56.070;12.698;2023-08-21T01:08:56;5.80;;;3.10;;
14209;SDS011;7188;56.070;12.698;2023-08-21T01:10:59;8.73;;;3.40;;
14209;SDS011;7188;56.070;12.698;2023-08-21T01:16:28;4.33;;;2.60;;
14209;SDS011;7188;56.070;12.698;2023-08-21T01:18:55;5.57;;;2.78;;
14209;SDS011;7188;56.070;12.698;2023-08-21T01:21:24;5.73;;;2.77;;
14209;SDS011;7188;56.070;12.698;2023-08-21T01:23:50;7.60;;;3.40;;
14209;SDS011;7188;56.070;12.698;2023-08-21T01:26:16;8.53;;;2.77;;
14209;SDS011;7188;56.070;12.698;2023-08-21T01:28:41;6.03;;;3.10;;
14209;SDS011;7188;56.070;12.698;2023-08-21T01:33:38;10.27;;;2.60;;
14209;SDS011;7188;56.070;12.698;2023-08-21T01:36:09;9.23;;;2.90;;
14209;SDS011;7188;56.070;12.698;2023-08-21T01:38:35;8.60;;;2.87;;
14209;SDS011;7188;56.070;12.698;2023-08-21T01:41:01;8.30;;;3.10;;
14209;SDS011;7188;56.070;12.698;2023-08-21T01:43:27;5.70;;;3.20;;
14209;SDS011;7188;56.070;12.698;2023-08-21T01:45:53;5.90;;;2.93;;
14209;SDS011;7188;56.070;12.698;2023-08-21T01:48:19;8.40;;;2.73;;
14209;SDS011;7188;56.070;12.698;2023-08-21T01:50:45;10.93;;;3.27;;
14209;SDS011;7188;56.070;12.698;2023-08-21T01:53:10;9.87;;;2.60;;
14209;SDS011;7188;56.070;12.698;2023-08-21T01:55:36;8.18;;;2.78;;
14209;SDS011;7188;56.070;12.698;2023-08-21T01:58:02;6.37;;;2.83;;
14209;SDS011;7188;56.070;12.698;2023-08-21T02:00:27;8.60;;;3.40;;
14209;SDS011;7188;56.070;12.698;2023-08-21T02:02:53;6.70;;;2.83;;
14209;SDS011;7188;56.070;12.698;2023-08-21T02:05:18;8.27;;;2.90;;
14209;SDS011;7188;56.070;12.698;2023-08-21T02:07:44;7.80;;;2.43;;
14209;SDS011;7188;56.070;12.698;2023-08-21T02:10:10;6.87;;;2.40;;
14209;SDS011;7188;56.070;12.698;2023-08-21T02:12:36;7.80;;;3.03;;
14209;SDS011;7188;56.070;12.698;2023-08-21T02:15:02;11.00;;;2.97;;
14209;SDS011;7188;56.070;12.698;2023-08-21T02:17:27;10.40;;;3.13;;
14209;SDS011;7188;56.070;12.698;2023-08-21T02:19:54;8.67;;;3.30;;
14209;SDS011;7188;56.070;12.698;2023-08-21T02:22:20;11.33;;;3.73;;
14209;SDS011;7188;56.070;12.698;2023-08-21T02:24:46;8.77;;;3.17;;
14209;SDS011;7188;56.070;12.698;2023-08-21T02:27:11;5.47;;;2.90;;
14209;SDS011;7188;56.070;12.698;2023-08-21T02:29:37;8.33;;;3.57;;
14209;SDS011;7188;56.070;12.698;2023-08-21T02:32:03;9.60;;;3.50;;
14209;SDS011;7188;56.070;12.698;2023-08-21T02:34:28;8.00;;;3.23;;
14209;SDS011;7188;56.070;12.698;2023-08-21T02:36:54;9.53;;;4.10;;
14209;SDS011;7188;56.070;12.698;2023-08-21T02:39:20;7.03;;;2.70;;
14209;SDS011;7188;56.070;12.698;2023-08-21T02:41:45;6.83;;;2.90;;
14209;SDS011;7188;56.070;12.698;2023-08-21T02:44:11;9.80;;;3.50;;
14209;SDS011;7188;56.070;12.698;2023-08-21T02:46:36;8.27;;;2.87;;
14209;SDS011;7188;56.070;12.698;2023-08-21T02:49:02;9.40;;;3.50;;
14209;SDS011;7188;56.070;12.698;2023-08-21T02:51:27;5.50;;;2.83;;
14209;SDS011;7188;56.070;12.698;2023-08-21T02:53:53;11.73;;;3.50;;
14209;SDS011;7188;56.070;12.698;2023-08-21T02:56:19;12.73;;;3.67;;
14209;SDS011;7188;56.070;12.698;2023-08-21T02:58:44;10.43;;;3.80;;
14209;SDS011;7188;56.070;12.698;2023-08-21T03:01:10;12.33;;;4.07;;
14209;SDS011;7188;56.070;12.698;2023-08-21T03:03:36;9.53;;;3.73;;
14209;SDS011;7188;56.070;12.698;2023-08-21T03:06:02;8.27;;;2.97;;
14209;SDS011;7188;56.070;12.698;2023-08-21T03:08:28;10.40;;;4.37;;
14209;SDS011;7188;56.070;12.698;2023-08-21T03:10:53;7.35;;;2.85;;
14209;SDS011;7188;56.070;12.698;2023-08-21T03:13:25;6.90;;;2.90;;
14209;SDS011;7188;56.070;12.698;2023-08-21T03:15:50;10.77;;;3.23;;
14209;SDS011;7188;56.070;12.698;2023-08-21T03:18:16;9.13;;;3.63;;
14209;SDS011;7188;56.070;12.698;2023-08-21T03:20:45;9.10;;;3.73;;
14209;SDS011;7188;56.070;12.698;2023-08-21T03:23:11;12.90;;;3.43;;
14209;SDS011;7188;56.070;12.698;2023-08-21T03:25:37;10.13;;;4.10;;
14209;SDS011;7188;56.070;12.698;2023-08-21T03:28:03;8.20;;;3.80;;
14209;SDS011;7188;56.070;12.698;2023-08-21T03:30:29;6.17;;;3.53;;
14209;SDS011;7188;56.070;12.698;2023-08-21T03:32:54;9.33;;;3.63;;
14209;SDS011;7188;56.070;12.698;2023-08-21T03:35:20;10.23;;;3.73;;
14209;SDS011;7188;56.070;12.698;2023-08-21T03:37:45;7.27;;;4.10;;
14209;SDS011;7188;56.070;12.698;2023-08-21T03:40:11;8.30;;;3.37;;
14209;SDS011;7188;56.070;12.698;2023-08-21T03:42:37;7.50;;;3.10;;
14209;SDS011;7188;56.070;12.698;2023-08-21T03:45:02;9.43;;;3.40;;
14209;SDS011;7188;56.070;12.698;2023-08-21T03:47:31;7.70;;;3.17;;
14209;SDS011;7188;56.070;12.698;2023-08-21T03:49:57;9.30;;;3.20;;
14209;SDS011;7188;56.070;12.698;2023-08-21T03:52:23;8.17;;;3.07;;
14209;SDS011;7188;56.070;12.698;2023-08-21T03:54:48;5.23;;;2.67;;
14209;SDS011;7188;56.070;12.698;2023-08-21T03:57:14;4.50;;;2.73;;
14209;SDS011;7188;56.070;12.698;2023-08-21T03:59:39;8.87;;;3.33;;
14209;SDS011;7188;56.070;12.698;2023-08-21T04:02:05;7.07;;;2.60;;
14209;SDS011;7188;56.070;12.698;2023-08-21T04:04:31;10.43;;;3.10;;
14209;SDS011;7188;56.070;12.698;2023-08-21T04:06:57;9.27;;;3.20;;
14209;SDS011;7188;56.070;12.698;2023-08-21T04:09:22;10.53;;;3.37;;
14209;SDS011;7188;56.070;12.698;2023-08-21T04:11:48;7.73;;;3.20;;
14209;SDS011;7188;56.070;12.698;2023-08-21T04:14:13;8.17;;;2.57;;
14209;SDS011;7188;56.070;12.698;2023-08-21T04:16:39;7.70;;;2.97;;
14209;SDS011;7188;56.070;12.698;2023-08-21T04:19:05;7.83;;;2.90;;
14209;SDS011;7188;56.070;12.698;2023-08-21T04:21:31;9.33;;;2.57;;
14209;SDS011;7188;56.070;12.698;2023-08-21T04:23:56;10.20;;;2.93;;
14209;SDS011;7188;56.070;12.698;2023-08-21T04:26:22;8.53;;;2.87;;
14209;SDS011;7188;56.070;12.698;2023-08-21T04:28:47;9.47;;;2.17;;
14209;SDS011;7188;56.070;12.698;2023-08-21T04:31:13;7.07;;;2.50;;
14209;SDS011;7188;56.070;12.698;2023-08-21T04:33:39;11.27;;;2.30;;
14209;SDS011;7188;56.070;12.698;2023-08-21T04:36:04;8.13;;;2.33;;
14209;SDS011;7188;56.070;12.698;2023-08-21T04:38:30;5.13;;;2.33;;
14209;SDS011;7188;56.070;12.698;2023-08-21T04:40:56;5.37;;;1.97;;
14209;SDS011;7188;56.070;12.698;2023-08-21T04:43:21;4.23;;;1.80;;
14209;SDS011;7188;56.070;12.698;2023-08-21T04:45:50;4.87;;;1.80;;
14209;SDS011;7188;56.070;12.698;2023-08-21T04:48:20;7.97;;;2.13;;
14209;SDS011;7188;56.070;12.698;2023-08-21T04:50:46;7.80;;;2.37;;
14209;SDS011;7188;56.070;12.698;2023-08-21T04:53:12;6.32;;;1.70;;
14209;SDS011;7188;56.070;12.698;2023-08-21T04:55:39;5.27;;;1.67;;
14209;SDS011;7188;56.070;12.698;2023-08-21T04:58:05;6.27;;;1.97;;
14209;SDS011;7188;56.070;12.698;2023-08-21T05:00:34;7.37;;;2.07;;
14209;SDS011;7188;56.070;12.698;2023-08-21T05:03:09;11.03;;;2.80;;
14209;SDS011;7188;56.070;12.698;2023-08-21T05:05:35;5.17;;;1.90;;
14209;SDS011;7188;56.070;12.698;2023-08-21T05:08:01;11.67;;;2.43;;
14209;SDS011;7188;56.070;12.698;2023-08-21T05:10:26;10.93;;;2.50;;
14209;SDS011;7188;56.070;12.698;2023-08-21T05:12:52;5.33;;;1.83;;
14209;SDS011;7188;56.070;12.698;2023-08-21T05:15:17;4.40;;;1.87;;
14209;SDS011;7188;56.070;12.698;2023-08-21T05:17:43;6.97;;;2.03;;
14209;SDS011;7188;56.070;12.698;2023-08-21T05:20:09;4.83;;;1.67;;
14209;SDS011;7188;56.070;12.698;2023-08-21T05:22:38;7.10;;;1.70;;
14209;SDS011;7188;56.070;12.698;2023-08-21T05:25:04;5.67;;;1.80;;
14209;SDS011;7188;56.070;12.698;2023-08-21T05:27:30;4.70;;;1.70;;
14209;SDS011;7188;56.070;12.698;2023-08-21T05:29:55;5.18;;;1.75;;
14209;SDS011;7188;56.070;12.698;2023-08-21T05:32:21;5.57;;;1.53;;
14209;SDS011;7188;56.070;12.698;2023-08-21T05:34:47;7.47;;;2.27;;
14209;SDS011;7188;56.070;12.698;2023-08-21T05:37:12;3.60;;;1.40;;
14209;SDS011;7188;56.070;12.698;2023-08-21T05:39:38;3.47;;;1.70;;
14209;SDS011;7188;56.070;12.698;2023-08-21T05:42:03;7.50;;;1.80;;
14209;SDS011;7188;56.070;12.698;2023-08-21T05:44:29;5.03;;;1.83;;
14209;SDS011;7188;56.070;12.698;2023-08-21T05:46:55;5.70;;;1.70;;
14209;SDS011;7188;56.070;12.698;2023-08-21T05:49:20;6.30;;;1.70;;
14209;SDS011;7188;56.070;12.698;2023-08-21T05:51:46;7.03;;;1.50;;
14209;SDS011;7188;56.070;12.698;2023-08-21T05:54:11;7.35;;;2.28;;
14209;SDS011;7188;56.070;12.698;2023-08-21T05:56:37;7.28;;;1.48;;
14209;SDS011;7188;56.070;12.698;2023-08-21T05:59:03;7.23;;;2.20;;
14209;SDS011;7188;56.070;12.698;2023-08-21T06:01:44;5.23;;;1.83;;
14209;SDS011;7188;56.070;12.698;2023-08-21T06:04:09;7.80;;;2.07;;
14209;SDS011;7188;56.070;12.698;2023-08-21T06:06:35;7.00;;;1.93;;
14209;SDS011;7188;56.070;12.698;2023-08-21T06:09:00;6.87;;;1.47;;
14209;SDS011;7188;56.070;12.698;2023-08-21T06:11:26;6.68;;;2.05;;
14209;SDS011;7188;56.070;12.698;2023-08-21T06:13:52;5.85;;;1.52;;
14209;SDS011;7188;56.070;12.698;2023-08-21T06:16:17;8.02;;;1.67;;
14209;SDS011;7188;56.070;12.698;2023-08-21T06:18:43;5.93;;;1.65;;
14209;SDS011;7188;56.070;12.698;2023-08-21T06:21:08;7.68;;;2.30;;
14209;SDS011;7188;56.070;12.698;2023-08-21T06:23:35;6.85;;;1.83;;
14209;SDS011;7188;56.070;12.698;2023-08-21T06:26:00;8.60;;;1.33;;
14209;SDS011;7188;56.070;12.698;2023-08-21T06:28:26;7.47;;;1.33;;
14209;SDS011;7188;56.070;12.698;2023-08-21T06:30:55;8.30;;;1.67;;
14209;SDS011;7188;56.070;12.698;2023-08-21T06:33:28;7.93;;;1.40;;
14209;SDS011;7188;56.070;12.698;2023-08-21T06:35:53;7.13;;;1.48;;
14209;SDS011;7188;56.070;12.698;2023-08-21T06:38:19;5.80;;;1.35;;
14209;SDS011;7188;56.070;12.698;2023-08-21T06:40:45;6.57;;;2.03;;
14209;SDS011;7188;56.070;12.698;2023-08-21T06:43:11;5.93;;;1.60;;
14209;SDS011;7188;56.070;12.698;2023-08-21T06:45:36;6.65;;;1.90;;
14209;SDS011;7188;56.070;12.698;2023-08-21T06:48:02;6.93;;;1.63;;
14209;SDS011;7188;56.070;12.698;2023-08-21T06:50:28;2.63;;;1.23;;
14209;SDS011;7188;56.070;12.698;2023-08-21T06:52:53;10.18;;;1.50;;
14209;SDS011;7188;56.070;12.698;2023-08-21T06:55:19;7.57;;;1.35;;
14209;SDS011;7188;56.070;12.698;2023-08-21T06:57:45;6.65;;;1.65;;
14209;SDS011;7188;56.070;12.698;2023-08-21T07:00:10;3.97;;;1.38;;
14209;SDS011;7188;56.070;12.698;2023-08-21T07:02:36;7.43;;;1.73;;
14209;SDS011;7188;56.070;12.698;2023-08-21T07:05:02;4.43;;;1.45;;
14209;SDS011;7188;56.070;12.698;2023-08-21T07:07:40;6.32;;;1.50;;
14209;SDS011;7188;56.070;12.698;2023-08-21T07:10:05;3.95;;;1.40;;
14209;SDS011;7188;56.070;12.698;2023-08-21T07:12:31;4.40;;;1.20;;
14209;SDS011;7188;56.070;12.698;2023-08-21T07:14:57;8.60;;;1.90;;
14209;SDS011;7188;56.070;12.698;2023-08-21T07:17:23;6.60;;;1.40;;
14209;SDS011;7188;56.070;12.698;2023-08-21T07:19:48;9.85;;;1.40;;
14209;SDS011;7188;56.070;12.698;2023-08-21T07:22:17;7.93;;;1.35;;
14209;SDS011;7188;56.070;12.698;2023-08-21T07:24:43;5.72;;;1.73;;
14209;SDS011;7188;56.070;12.698;2023-08-21T07:27:08;2.97;;;1.37;;
14209;SDS011;7188;56.070;12.698;2023-08-21T07:29:34;9.48;;;1.70;;
14209;SDS011;7188;56.070;12.698;2023-08-21T07:32:00;6.17;;;1.43;;
14209;SDS011;7188;56.070;12.698;2023-08-21T07:34:26;6.13;;;1.50;;
14209;SDS011;7188;56.070;12.698;2023-08-21T07:36:52;5.90;;;1.33;;
14209;SDS011;7188;56.070;12.698;2023-08-21T07:39:18;6.87;;;1.67;;
14209;SDS011;7188;56.070;12.698;2023-08-21T07:41:44;4.95;;;1.33;;
14209;SDS011;7188;56.070;12.698;2023-08-21T07:44:10;4.93;;;1.80;;
14209;SDS011;7188;56.070;12.698;2023-08-21T07:46:35;6.57;;;1.20;;
14209;SDS011;7188;56.070;12.698;2023-08-21T07:49:01;4.65;;;1.40;;
14209;SDS011;7188;56.070;12.698;2023-08-21T07:51:27;9.20;;;1.63;;
14209;SDS011;7188;56.070;12.698;2023-08-21T07:53:52;6.28;;;1.73;;
14209;SDS011;7188;56.070;12.698;2023-08-21T07:56:18;7.50;;;2.20;;
14209;SDS011;7188;56.070;12.698;2023-08-21T07:58:43;6.40;;;1.73;;
14209;SDS011;7188;56.070;12.698;2023-08-21T08:01:09;4.60;;;1.17;;
14209;SDS011;7188;56.070;12.698;2023-08-21T08:03:35;4.72;;;1.40;;
14209;SDS011;7188;56.070;12.698;2023-08-21T08:06:00;8.13;;;1.57;;
14209;SDS011;7188;56.070;12.698;2023-08-21T08:08:26;5.17;;;1.40;;
14209;SDS011;7188;56.070;12.698;2023-08-21T08:10:52;5.27;;;1.43;;
14209;SDS011;7188;56.070;12.698;2023-08-21T08:13:17;5.93;;;1.58;;
14209;SDS011;7188;56.070;12.698;2023-08-21T08:15:43;5.60;;;2.17;;
14209;SDS011;7188;56.070;12.698;2023-08-21T08:18:12;4.30;;;1.43;;
14209;SDS011;7188;56.070;12.698;2023-08-21T08:20:38;9.60;;;2.05;;
14209;SDS011;7188;56.070;12.698;2023-08-21T08:23:04;8.93;;;1.50;;
14209;SDS011;7188;56.070;12.698;2023-08-21T08:25:29;9.70;;;1.90;;
14209;SDS011;7188;56.070;12.698;2023-08-21T08:27:55;9.45;;;1.60;;
14209;SDS011;7188;56.070;12.698;2023-08-21T08:30:20;6.07;;;1.40;;
14209;SDS011;7188;56.070;12.698;2023-08-21T08:32:46;4.72;;;1.55;;
14209;SDS011;7188;56.070;12.698;2023-08-21T08:35:14;5.13;;;1.47;;
14209;SDS011;7188;56.070;12.698;2023-08-21T08:37:41;6.03;;;1.13;;
14209;SDS011;7188;56.070;12.698;2023-08-21T08:40:07;3.65;;;1.35;;
14209;SDS011;7188;56.070;12.698;2023-08-21T08:42:35;4.90;;;1.20;;
14209;SDS011;7188;56.070;12.698;2023-08-21T08:45:04;7.18;;;1.90;;
14209;SDS011;7188;56.070;12.698;2023-08-21T08:47:34;5.78;;;1.60;;
14209;SDS011;7188;56.070;12.698;2023-08-21T08:50:03;7.20;;;1.73;;
14209;SDS011;7188;56.070;12.698;2023-08-21T08:52:36;2.25;;;1.23;;
14209;SDS011;7188;56.070;12.698;2023-08-21T08:55:04;5.55;;;1.48;;
14209;SDS011;7188;56.070;12.698;2023-08-21T08:57:33;5.07;;;1.58;;
14209;SDS011;7188;56.070;12.698;2023-08-21T08:59:59;5.65;;;1.45;;
14209;SDS011;7188;56.070;12.698;2023-08-21T09:02:25;3.08;;;1.02;;
14209;SDS011;7188;56.070;12.698;2023-08-21T09:04:51;5.75;;;1.25;;
14209;SDS011;7188;56.070;12.698;2023-08-21T09:07:17;3.33;;;1.58;;
14209;SDS011;7188;56.070;12.698;2023-08-21T09:09:45;5.20;;;1.38;;
14209;SDS011;7188;56.070;12.698;2023-08-21T09:12:12;7.63;;;1.90;;
14209;SDS011;7188;56.070;12.698;2023-08-21T09:14:39;3.63;;;1.00;;
14209;SDS011;7188;56.070;12.698;2023-08-21T09:17:08;4.13;;;1.00;;
14209;SDS011;7188;56.070;12.698;2023-08-21T09:19:34;4.38;;;1.38;;
14209;SDS011;7188;56.070;12.698;2023-08-21T09:22:13;6.72;;;1.42;;
14209;SDS011;7188;56.070;12.698;2023-08-21T09:24:41;3.85;;;1.33;;
14209;SDS011;7188;56.070;12.698;2023-08-21T09:27:38;6.25;;;1.30;;
14209;SDS011;7188;56.070;12.698;2023-08-21T09:30:05;6.95;;;1.42;;
14209;SDS011;7188;56.070;12.698;2023-08-21T09:32:53;4.68;;;1.23;;
14209;SDS011;7188;56.070;12.698;2023-08-21T09:35:21;3.33;;;1.52;;
14209;SDS011;7188;56.070;12.698;2023-08-21T09:37:47;6.75;;;1.30;;
14209;SDS011;7188;56.070;12.698;2023-08-21T09:40:12;4.28;;;0.93;;
14209;SDS011;7188;56.070;12.698;2023-08-21T09:42:39;3.80;;;1.27;;
14209;SDS011;7188;56.070;12.698;2023-08-21T09:45:05;5.05;;;1.15;;
14209;SDS011;7188;56.070;12.698;2023-08-21T09:47:32;3.20;;;0.80;;
14209;SDS011;7188;56.070;12.698;2023-08-21T09:49:58;4.93;;;1.20;;
14209;SDS011;7188;56.070;12.698;2023-08-21T09:52:25;7.07;;;1.10;;
14209;SDS011;7188;56.070;12.698;2023-08-21T09:54:53;1.85;;;0.80;;
14209;SDS011;7188;56.070;12.698;2023-08-21T09:57:20;3.75;;;1.05;;
14209;SDS011;7188;56.070;12.698;2023-08-21T09:59:48;3.90;;;1.00;;
14209;SDS011;7188;56.070;12.698;2023-08-21T10:02:17;5.05;;;1.40;;
14209;SDS011;7188;56.070;12.698;2023-08-21T10:04:43;4.68;;;1.60;;
14209;SDS011;7188;56.070;12.698;2023-08-21T10:07:11;4.20;;;1.55;;
14209;SDS011;7188;56.070;12.698;2023-08-21T10:09:38;3.17;;;1.40;;
14209;SDS011;7188;56.070;12.698;2023-08-21T10:12:07;4.93;;;1.45;;
14209;SDS011;7188;56.070;12.698;2023-08-21T10:14:34;8.38;;;1.65;;
14209;SDS011;7188;56.070;12.698;2023-08-21T10:17:01;4.47;;;1.25;;
14209;SDS011;7188;56.070;12.698;2023-08-21T10:19:33;2.78;;;1.15;;
14209;SDS011;7188;56.070;12.698;2023-08-21T10:21:59;5.10;;;1.30;;
14209;SDS011;7188;56.070;12.698;2023-08-21T10:24:35;5.35;;;1.10;;
14209;SDS011;7188;56.070;12.698;2023-08-21T10:27:02;5.38;;;1.30;;
14209;SDS011;7188;56.070;12.698;2023-08-21T10:29:28;6.55;;;1.45;;
14209;SDS011;7188;56.070;12.698;2023-08-21T10:31:59;7.15;;;1.70;;
14209;SDS011;7188;56.070;12.698;2023-08-21T10:34:34;6.43;;;1.40;;
14209;SDS011;7188;56.070;12.698;2023-08-21T10:37:09;4.93;;;1.50;;
14209;SDS011;7188;56.070;12.698;2023-08-21T10:39:37;4.40;;;1.23;;
14209;SDS011;7188;56.070;12.698;2023-08-21T10:49:43;5.47;;;1.27;;
14209;SDS011;7188;56.070;12.698;2023-08-21T10:52:12;4.38;;;1.20;;
14209;SDS011;7188;56.070;12.698;2023-08-21T10:54:45;5.35;;;1.10;;
14209;SDS011;7188;56.070;12.698;2023-08-21T10:57:12;3.55;;;1.55;;
14209;SDS011;7188;56.070;12.698;2023-08-21T10:59:37;5.65;;;1.25;;
14209;SDS011;7188;56.070;12.698;2023-08-21T11:02:03;4.70;;;1.60;;
14209;SDS011;7188;56.070;12.698;2023-08-21T11:04:29;3.33;;;1.25;;
14209;SDS011;7188;56.070;12.698;2023-08-21T11:06:54;5.75;;;1.90;;
14209;SDS011;7188;56.070;12.698;2023-08-21T11:09:22;3.47;;;1.13;;
14209;SDS011;7188;56.070;12.698;2023-08-21T11:11:47;3.33;;;1.35;;
14209;SDS011;7188;56.070;12.698;2023-08-21T11:14:13;2.92;;;1.25;;
14209;SDS011;7188;56.070;12.698;2023-08-21T11:16:38;3.10;;;1.23;;
14209;SDS011;7188;56.070;12.698;2023-08-21T11:19:24;2.65;;;1.23;;
14209;SDS011;7188;56.070;12.698;2023-08-21T11:21:52;5.95;;;1.52;;
14209;SDS011;7188;56.070;12.698;2023-08-21T11:24:18;4.50;;;1.45;;
14209;SDS011;7188;56.070;12.698;2023-08-21T11:26:43;4.97;;;0.93;;
14209;SDS011;7188;56.070;12.698;2023-08-21T11:29:09;4.10;;;1.13;;
14209;SDS011;7188;56.070;12.698;2023-08-21T11:31:34;3.45;;;1.23;;
14209;SDS011;7188;56.070;12.698;2023-08-21T11:34:00;2.85;;;1.55;;
14209;SDS011;7188;56.070;12.698;2023-08-21T11:36:26;6.05;;;1.42;;
14209;SDS011;7188;56.070;12.698;2023-08-21T11:39:01;4.97;;;1.30;;
14209;SDS011;7188;56.070;12.698;2023-08-21T11:41:30;4.00;;;1.38;;
14209;SDS011;7188;56.070;12.698;2023-08-21T11:44:01;5.32;;;1.23;;
14209;SDS011;7188;56.070;12.698;2023-08-21T11:46:28;3.58;;;0.93;;
14209;SDS011;7188;56.070;12.698;2023-08-21T11:48:54;3.88;;;1.10;;
14209;SDS011;7188;56.070;12.698;2023-08-21T11:51:19;3.92;;;1.17;;
14209;SDS011;7188;56.070;12.698;2023-08-21T11:53:47;4.57;;;1.38;;
14209;SDS011;7188;56.070;12.698;2023-08-21T11:56:16;6.97;;;1.73;;
14209;SDS011;7188;56.070;12.698;2023-08-21T11:58:43;7.07;;;1.50;;
14209;SDS011;7188;56.070;12.698;2023-08-21T12:01:20;6.78;;;1.33;;
14209;SDS011;7188;56.070;12.698;2023-08-21T12:03:46;3.15;;;1.13;;
14209;SDS011;7188;56.070;12.698;2023-08-21T12:06:19;3.20;;;1.20;;
14209;SDS011;7188;56.070;12.698;2023-08-21T12:08:46;3.35;;;1.17;;
14209;SDS011;7188;56.070;12.698;2023-08-21T12:11:12;4.45;;;1.15;;
14209;SDS011;7188;56.070;12.698;2023-08-21T12:13:37;5.47;;;1.55;;
14209;SDS011;7188;56.070;12.698;2023-08-21T12:16:03;3.20;;;1.42;;
14209;SDS011;7188;56.070;12.698;2023-08-21T12:18:29;3.17;;;1.17;;
14209;SDS011;7188;56.070;12.698;2023-08-21T12:20:55;4.05;;;1.40;;
14209;SDS011;7188;56.070;12.698;2023-08-21T12:23:20;4.15;;;1.27;;
14209;SDS011;7188;56.070;12.698;2023-08-21T12:25:46;2.85;;;0.95;;
14209;SDS011;7188;56.070;12.698;2023-08-21T12:28:12;3.47;;;1.10;;
14209;SDS011;7188;56.070;12.698;2023-08-21T12:30:38;2.47;;;1.10;;
14209;SDS011;7188;56.070;12.698;2023-08-21T12:33:03;3.25;;;1.60;;
14209;SDS011;7188;56.070;12.698;2023-08-21T12:38:29;6.72;;;1.60;;
14209;SDS011;7188;56.070;12.698;2023-08-21T12:40:54;2.38;;;0.95;;
14209;SDS011;7188;56.070;12.698;2023-08-21T12:43:20;3.92;;;1.05;;
14209;SDS011;7188;56.070;12.698;2023-08-21T12:45:46;3.28;;;0.80;;
14209;SDS011;7188;56.070;12.698;2023-08-21T12:48:12;1.85;;;1.00;;
14209;SDS011;7188;56.070;12.698;2023-08-21T12:50:38;6.07;;;1.20;;
14209;SDS011;7188;56.070;12.698;2023-08-21T12:53:03;3.65;;;1.10;;
14209;SDS011;7188;56.070;12.698;2023-08-21T12:55:29;1.55;;;0.80;;
14209;SDS011;7188;56.070;12.698;2023-08-21T12:57:55;2.90;;;0.80;;
14209;SDS011;7188;56.070;12.698;2023-08-21T13:00:21;4.30;;;0.95;;
14209;SDS011;7188;56.070;12.698;2023-08-21T13:02:47;5.25;;;1.10;;
14209;SDS011;7188;56.070;12.698;2023-08-21T13:05:13;3.13;;;1.20;;
14209;SDS011;7188;56.070;12.698;2023-08-21T13:07:40;4.13;;;1.05;;
14209;SDS011;7188;56.070;12.698;2023-08-21T13:10:06;3.78;;;0.85;;
14209;SDS011;7188;56.070;12.698;2023-08-21T13:12:33;1.60;;;0.88;;
14209;SDS011;7188;56.070;12.698;2023-08-21T13:14:59;4.53;;;0.80;;
14209;SDS011;7188;56.070;12.698;2023-08-21T13:17:25;1.40;;;0.85;;
14209;SDS011;7188;56.070;12.698;2023-08-21T13:19:50;3.28;;;0.90;;
14209;SDS011;7188;56.070;12.698;2023-08-21T13:22:16;3.28;;;0.80;;
14209;SDS011;7188;56.070;12.698;2023-08-21T13:24:42;2.28;;;0.82;;
14209;SDS011;7188;56.070;12.698;2023-08-21T13:27:08;1.98;;;0.55;;
14209;SDS011;7188;56.070;12.698;2023-08-21T13:29:33;3.08;;;0.85;;
14209;SDS011;7188;56.070;12.698;2023-08-21T13:31:59;7.90;;;0.98;;
14209;SDS011;7188;56.070;12.698;2023-08-21T13:34:25;3.38;;;1.08;;
14209;SDS011;7188;56.070;12.698;2023-08-21T13:36:50;4.22;;;1.08;;
14209;SDS011;7188;56.070;12.698;2023-08-21T13:39:16;2.35;;;0.80;;
14209;SDS011;7188;56.070;12.698;2023-08-21T13:41:42;2.50;;;0.70;;
14209;SDS011;7188;56.070;12.698;2023-08-21T13:44:09;3.70;;;0.70;;
14209;SDS011;7188;56.070;12.698;2023-08-21T13:49:25;3.58;;;1.23;;
14209;SDS011;7188;56.070;12.698;2023-08-21T13:51:50;2.20;;;0.90;;
14209;SDS011;7188;56.070;12.698;2023-08-21T13:54:16;1.75;;;1.10;;
14209;SDS011;7188;56.070;12.698;2023-08-21T13:56:42;1.65;;;0.70;;
14209;SDS011;7188;56.070;12.698;2023-08-21T13:59:07;2.45;;;1.45;;
14209;SDS011;7188;56.070;12.698;2023-08-21T14:01:33;2.53;;;1.00;;
14209;SDS011;7188;56.070;12.698;2023-08-21T14:03:58;3.47;;;1.15;;
14209;SDS011;7188;56.070;12.698;2023-08-21T14:06:24;5.95;;;1.20;;
14209;SDS011;7188;56.070;12.698;2023-08-21T14:08:49;4.07;;;0.80;;
14209;SDS011;7188;56.070;12.698;2023-08-21T14:11:15;3.88;;;1.02;;
14209;SDS011;7188;56.070;12.698;2023-08-21T14:13:41;2.10;;;0.77;;
14209;SDS011;7188;56.070;12.698;2023-08-21T14:16:07;1.20;;;0.60;;
14209;SDS011;7188;56.070;12.698;2023-08-21T14:18:33;4.85;;;0.80;;
14209;SDS011;7188;56.070;12.698;2023-08-21T14:20:58;1.45;;;1.10;;
14209;SDS011;7188;56.070;12.698;2023-08-21T14:23:24;4.05;;;1.20;;
14209;SDS011;7188;56.070;12.698;2023-08-21T14:25:50;3.45;;;0.88;;
14209;SDS011;7188;56.070;12.698;2023-08-21T14:28:16;2.25;;;1.00;;
14209;SDS011;7188;56.070;12.698;2023-08-21T14:30:42;1.98;;;0.80;;
14209;SDS011;7188;56.070;12.698;2023-08-21T14:33:08;3.30;;;0.82;;
14209;SDS011;7188;56.070;12.698;2023-08-21T14:35:33;2.90;;;0.73;;
14209;SDS011;7188;56.070;12.698;2023-08-21T14:37:59;3.15;;;1.08;;
14209;SDS011;7188;56.070;12.698;2023-08-21T14:40:24;3.35;;;1.13;;
14209;SDS011;7188;56.070;12.698;2023-08-21T14:42:50;4.80;;;1.23;;
14209;SDS011;7188;56.070;12.698;2023-08-21T14:45:15;1.70;;;1.02;;
14209;SDS011;7188;56.070;12.698;2023-08-21T14:47:41;3.83;;;1.15;;
14209;SDS011;7188;56.070;12.698;2023-08-21T14:50:08;3.30;;;0.70;;
14209;SDS011;7188;56.070;12.698;2023-08-21T14:52:34;3.45;;;1.00;;
14209;SDS011;7188;56.070;12.698;2023-08-21T14:54:59;3.42;;;0.75;;
14209;SDS011;7188;56.070;12.698;2023-08-21T14:57:25;3.53;;;1.30;;
14209;SDS011;7188;56.070;12.698;2023-08-21T14:59:51;2.70;;;1.23;;
14209;SDS011;7188;56.070;12.698;2023-08-21T15:02:16;3.53;;;0.90;;